Time;durP1;ratioP1;P1;durP2;ratioP2;P2;SDS_P1;SDS_P2;PMS_P1;PMS_P2;Temp;Humidity;BMP_temperature;BMP_pressure;BME280_temperature;BME280_humidity;BME280_pressure;Samples;Min_cycle;Max_cycle;Signal;HPM_P1;HPM_P2
2022/09/30 00:02:00;;;;;;;20.25;11.20;;;8.30;47.60;;;;;;7361822;19;20014;-70
2022/09/30 00:04:32;;;;;;;17.85;12.18;;;8.10;46.90;;;;;;7364852;19;20039;-70
2022/09/30 00:07:02;;;;;;;18.33;10.88;;;8.00;46.90;;;;;;7385674;19;20499;-70
2022/09/30 00:09:32;;;;;;;16.63;11.43;;;8.00;47.30;;;;;;7365560;19;20006;-70
2022/09/30 00:12:02;;;;;;;20.85;11.45;;;8.00;47.40;;;;;;7361004;19;20375;-70
2022/09/30 00:14:32;;;;;;;15.55;11.43;;;7.90;47.80;;;;;;7363896;19;20710;-70
2022/09/30 00:17:01;;;;;;;19.77;11.32;;;7.90;48.00;;;;;;7363850;19;20007;-70
2022/09/30 00:19:34;;;;;;;18.23;12.73;;;7.90;48.20;;;;;;7366129;19;20007;-70
2022/09/30 00:22:04;;;;;;;16.58;12.73;;;7.90;48.50;;;;;;7381136;19;20513;-70
2022/09/30 00:24:33;;;;;;;17.50;12.48;;;7.90;48.70;;;;;;7364853;19;20022;-71
2022/09/30 00:27:03;;;;;;;17.55;12.73;;;7.90;48.70;;;;;;7363196;19;20019;-70
2022/09/30 00:29:33;;;;;;;15.95;12.63;;;8.00;48.80;;;;;;7364799;19;20010;-68
2022/09/30 00:32:03;;;;;;;18.05;12.93;;;8.00;48.90;;;;;;7360646;19;20010;-69
2022/09/30 00:34:36;;;;;;;19.10;12.20;;;8.00;48.90;;;;;;7363839;19;20554;-70
2022/09/30 00:37:07;;;;;;;17.73;12.48;;;8.10;49.00;;;;;;7374834;19;20051;-70
2022/09/30 00:39:37;;;;;;;15.90;12.18;;;8.10;48.80;;;;;;7386226;19;20021;-70
2022/09/30 00:42:13;;;;;;;21.30;12.75;;;8.00;48.50;;;;;;7358531;19;20046;-70
2022/09/30 00:44:52;;;;;;;19.77;13.52;;;8.00;48.80;;;;;;7363605;19;20011;-70
2022/09/30 00:47:36;;;;;;;21.70;13.77;;;8.00;49.10;;;;;;7364379;19;20003;-70
2022/09/30 00:50:16;;;;;;;16.58;13.82;;;8.00;49.50;;;;;;7363500;19;20042;-70
2022/09/30 00:52:51;;;;;;;22.17;14.32;;;7.90;49.90;;;;;;7362516;19;20347;-70
2022/09/30 00:55:29;;;;;;;20.02;14.40;;;7.90;50.30;;;;;;7362828;19;20090;-70
2022/09/30 00:58:00;;;;;;;23.02;15.05;;;8.00;51.10;;;;;;7384602;19;20051;-70
2022/09/30 01:00:30;;;;;;;22.30;15.45;;;8.00;51.10;;;;;;7362293;19;20033;-69
2022/09/30 01:03:00;;;;;;;19.20;13.93;;;8.00;51.30;;;;;;7361884;19;20015;-70
2022/09/30 01:05:34;;;;;;;17.73;12.68;;;8.00;51.60;;;;;;7362746;19;20387;-69
2022/09/30 01:08:06;;;;;;;21.52;13.07;;;8.00;51.60;;;;;;7364744;19;20028;-69
2022/09/30 01:10:36;;;;;;;22.10;12.65;;;8.00;51.30;;;;;;7362603;19;20083;-69
2022/09/30 01:13:07;;;;;;;18.67;13.43;;;8.00;51.20;;;;;;7368731;19;20035;-68
2022/09/30 01:15:49;;;;;;;17.65;13.30;;;8.00;50.80;;;;;;7384864;19;20125;-69
2022/09/30 01:18:27;;;;;;;18.77;12.75;;;8.10;50.70;;;;;;7362438;19;20346;-69
2022/09/30 01:21:25;;;;;;;17.10;12.43;;;8.10;50.70;;;;;;7360674;19;20010;-70
2022/09/30 01:24:24;;;;;;;19.83;12.48;;;8.10;50.30;;;;;;7359624;19;20006;-69
2022/09/30 01:27:17;;;;;;;18.92;13.38;;;8.10;50.40;;;;;;7360202;19;20015;-69
2022/09/30 01:30:08;;;;;;;26.90;13.98;;;8.10;49.80;;;;;;7363300;19;20020;-69
2022/09/30 01:33:05;;;;;;;21.90;12.25;;;8.00;49.80;;;;;;7360475;19;20386;-69
2022/09/30 01:36:01;;;;;;;17.48;12.05;;;7.90;49.70;;;;;;7359920;19;20095;-68
2022/09/30 01:38:36;;;;;;;18.73;12.88;;;8.00;50.10;;;;;;7363139;19;20011;-68
2022/09/30 01:41:09;;;;;;;16.05;12.02;;;8.10;50.10;;;;;;7361667;19;20015;-69
2022/09/30 01:43:44;;;;;;;16.08;11.93;;;8.10;50.10;;;;;;7360474;19;20090;-69
2022/09/30 01:46:22;;;;;;;19.08;12.90;;;8.10;49.70;;;;;;7363036;19;20081;-70
2022/09/30 01:49:01;;;;;;;19.08;12.50;;;8.10;48.90;;;;;;7385235;19;20018;-70
2022/09/30 01:51:36;;;;;;;18.42;12.77;;;8.10;49.30;;;;;;7360916;19;20007;-69
2022/09/30 01:54:11;;;;;;;14.98;10.55;;;8.10;49.20;;;;;;7361899;19;20761;-69
2022/09/30 01:56:44;;;;;;;15.10;11.27;;;8.00;48.70;;;;;;7367566;19;20011;-69
2022/09/30 01:59:20;;;;;;;16.90;11.50;;;8.00;48.70;;;;;;7370235;19;20006;-69
2022/09/30 02:01:54;;;;;;;14.23;10.55;;;8.00;48.70;;;;;;7367451;19;20015;-69
2022/09/30 02:04:32;;;;;;;14.60;10.52;;;8.00;48.70;;;;;;7369115;19;20006;-69
2022/09/30 02:07:07;;;;;;;16.90;10.63;;;8.00;48.80;;;;;;7389935;19;20007;-69
2022/09/30 02:09:41;;;;;;;16.30;10.52;;;8.00;49.30;;;;;;7370398;19;20039;-70
2022/09/30 02:12:17;;;;;;;14.40;9.98;;;8.00;48.80;;;;;;7366087;19;20031;-70
2022/09/30 02:14:52;;;;;;;15.20;9.95;;;8.00;48.80;;;;;;7367783;19;20006;-69
2022/09/30 02:17:26;;;;;;;13.95;10.20;;;8.00;48.80;;;;;;7370091;19;20011;-69
2022/09/30 02:20:03;;;;;;;17.58;11.05;;;8.00;48.70;;;;;;7370573;19;20010;-69
2022/09/30 02:22:40;;;;;;;14.77;9.88;;;8.10;48.80;;;;;;7365636;19;20011;-69
2022/09/30 02:25:14;;;;;;;14.15;10.25;;;8.10;49.40;;;;;;7367450;19;20014;-70
2022/09/30 02:27:47;;;;;;;12.90;10.45;;;8.10;49.50;;;;;;7388599;19;20006;-69
2022/09/30 02:30:17;;;;;;;13.50;10.57;;;8.10;49.30;;;;;;7364709;19;20011;-69
2022/09/30 02:32:52;;;;;;;14.63;9.65;;;8.00;49.10;;;;;;7366326;19;20014;-70
2022/09/30 02:35:28;;;;;;;12.10;9.93;;;8.10;48.80;;;;;;7365595;19;20034;-70
2022/09/30 02:38:02;;;;;;;18.75;9.93;;;8.00;48.70;;;;;;7366592;19;20019;-70
2022/09/30 02:40:38;;;;;;;11.68;8.90;;;8.00;48.70;;;;;;7367550;19;20011;-68
2022/09/30 02:43:10;;;;;;;14.75;10.40;;;8.00;48.90;;;;;;7367102;19;20115;-69
2022/09/30 02:45:47;;;;;;;17.65;10.30;;;8.00;48.80;;;;;;7387599;19;20014;-69
2022/09/30 02:48:30;;;;;;;13.90;10.55;;;7.90;48.70;;;;;;7367729;19;20022;-68
2022/09/30 02:51:12;;;;;;;19.27;10.40;;;7.80;49.20;;;;;;7365232;19;20014;-69
2022/09/30 02:53:47;;;;;;;12.85;10.50;;;8.00;49.70;;;;;;7366957;19;20091;-70
2022/09/30 02:56:27;;;;;;;15.23;9.95;;;8.00;49.50;;;;;;7366304;19;20033;-70
2022/09/30 02:58:58;;;;;;;14.95;9.98;;;8.00;49.30;;;;;;7369497;19;20010;-70
2022/09/30 03:01:28;;;;;;;14.45;9.82;;;7.90;49.20;;;;;;7366066;19;20038;-70
2022/09/30 03:04:01;;;;;;;13.35;10.05;;;7.90;49.30;;;;;;7387068;19;20022;-69
2022/09/30 03:06:34;;;;;;;13.27;9.35;;;7.80;49.30;;;;;;7363163;19;20017;-69
2022/09/30 03:09:05;;;;;;;17.55;9.52;;;7.80;49.50;;;;;;7368676;19;20026;-69
2022/09/30 03:11:36;;;;;;;13.23;9.40;;;7.70;49.50;;;;;;7365917;19;20507;-68
2022/09/30 03:14:37;;;;;;;16.15;10.32;;;7.70;50.00;;;;;;7365063;19;20014;-69
2022/09/30 03:17:39;;;;;;;14.80;10.57;;;7.70;50.30;;;;;;7365851;19;20014;-70
2022/09/30 03:20:35;;;;;;;11.27;9.30;;;7.80;50.80;;;;;;7364873;19;20019;-69
2022/09/30 03:23:26;;;;;;;15.70;10.55;;;7.70;50.20;;;;;;7364477;19;20006;-69
2022/09/30 03:26:04;;;;;;;12.95;10.32;;;7.70;50.30;;;;;;7365438;19;20007;-69
2022/09/30 03:28:37;;;;;;;12.85;9.65;;;7.70;50.50;;;;;;7366919;19;20039;-70
2022/09/30 03:31:15;;;;;;;13.27;9.83;;;7.60;50.80;;;;;;7365392;19;20064;-69
2022/09/30 03:33:53;;;;;;;14.60;9.45;;;7.60;51.00;;;;;;7384981;19;20018;-69
2022/09/30 03:36:31;;;;;;;12.63;9.50;;;7.60;50.80;;;;;;7364787;19;20514;-69
2022/09/30 03:39:08;;;;;;;13.57;9.57;;;7.60;51.20;;;;;;7365984;19;20014;-69
2022/09/30 03:41:43;;;;;;;14.15;9.75;;;7.60;51.60;;;;;;7365100;19;20018;-70
2022/09/30 03:44:21;;;;;;;13.32;10.48;;;7.60;51.70;;;;;;7364279;19;20074;-69
2022/09/30 03:46:55;;;;;;;17.63;11.55;;;7.60;51.30;;;;;;7365678;19;20463;-69
2022/09/30 03:49:29;;;;;;;14.13;10.57;;;7.60;52.40;;;;;;7365913;19;20625;-70
2022/09/30 03:51:59;;;;;;;14.23;10.50;;;7.60;52.40;;;;;;7387202;19;20033;-69
2022/09/30 03:54:37;;;;;;;17.52;10.20;;;7.60;52.50;;;;;;7365527;19;20010;-69
2022/09/30 03:57:06;;;;;;;16.85;10.77;;;7.60;52.50;;;;;;7363605;19;20007;-70
2022/09/30 03:59:36;;;;;;;13.02;9.18;;;7.50;52.30;;;;;;7364444;19;20011;-69
2022/09/30 04:02:11;;;;;;;13.05;9.00;;;7.40;52.20;;;;;;7362256;19;20094;-69
2022/09/30 04:04:42;;;;;;;14.52;9.73;;;7.40;52.10;;;;;;7364401;19;20022;-69
2022/09/30 04:07:13;;;;;;;14.43;10.38;;;7.30;52.10;;;;;;7365005;19;20016;-69
2022/09/30 04:09:45;;;;;;;15.43;10.02;;;7.30;52.20;;;;;;7387019;19;20014;-69
2022/09/30 04:12:15;;;;;;;14.20;9.75;;;7.30;52.20;;;;;;7362063;19;20489;-70
2022/09/30 04:14:45;;;;;;;13.77;9.52;;;7.20;52.10;;;;;;7363853;19;20128;-69
2022/09/30 04:17:15;;;;;;;11.73;9.70;;;7.20;52.10;;;;;;7364781;19;20018;-68
2022/09/30 04:19:45;;;;;;;15.48;9.65;;;7.20;52.50;;;;;;7365162;19;20011;-69
2022/09/30 04:22:15;;;;;;;16.90;10.18;;;7.30;53.00;;;;;;7360175;19;20011;-69
2022/09/30 04:24:48;;;;;;;12.98;9.35;;;7.30;52.70;;;;;;7384649;19;20013;-68
2022/09/30 04:27:17;;;;;;;12.18;9.65;;;7.30;52.80;;;;;;7363954;19;20524;-68
2022/09/30 04:29:47;;;;;;;15.57;9.65;;;7.30;52.60;;;;;;7365189;19;20002;-69
2022/09/30 04:32:17;;;;;;;13.00;9.13;;;7.30;52.30;;;;;;7360221;19;20015;-69
2022/09/30 04:34:47;;;;;;;11.70;9.18;;;7.20;52.30;;;;;;7363588;19;20038;-69
2022/09/30 04:37:16;;;;;;;13.27;8.85;;;7.30;53.00;;;;;;7364267;19;20010;-70
2022/09/30 04:39:49;;;;;;;12.48;9.38;;;7.40;53.20;;;;;;7384791;19;20014;-68
2022/09/30 04:42:19;;;;;;;10.70;8.50;;;7.30;52.30;;;;;;7360933;19;19998;-68
2022/09/30 04:44:48;;;;;;;13.65;9.48;;;7.30;52.70;;;;;;7364196;19;20010;-69
2022/09/30 04:47:18;;;;;;;11.80;9.00;;;7.40;52.90;;;;;;7363194;19;20006;-67
2022/09/30 04:49:48;;;;;;;18.52;10.15;;;7.30;52.40;;;;;;7363377;19;20015;-68
2022/09/30 04:52:18;;;;;;;14.00;9.10;;;7.30;52.30;;;;;;7360392;19;20011;-69
2022/09/30 04:54:50;;;;;;;13.90;9.52;;;7.20;52.20;;;;;;7384416;19;20479;-70
2022/09/30 04:57:20;;;;;;;17.75;9.60;;;7.20;52.30;;;;;;7364345;19;20011;-70
2022/09/30 04:59:49;;;;;;;12.88;9.65;;;7.10;52.40;;;;;;7364132;19;20006;-69
2022/09/30 05:02:19;;;;;;;14.98;10.40;;;7.10;52.20;;;;;;7359419;19;20010;-69
2022/09/30 05:04:49;;;;;;;14.73;9.40;;;7.00;52.30;;;;;;7362679;19;20010;-69
2022/09/30 05:07:19;;;;;;;14.38;10.10;;;7.00;52.70;;;;;;7362398;19;20018;-70
2022/09/30 05:09:52;;;;;;;16.38;10.38;;;7.00;52.80;;;;;;7386292;19;20038;-71
2022/09/30 05:12:22;;;;;;;13.32;10.10;;;7.00;52.80;;;;;;7360385;19;20006;-70
2022/09/30 05:14:52;;;;;;;14.55;9.68;;;7.00;53.60;;;;;;7362650;19;20017;-70
2022/09/30 05:17:22;;;;;;;15.18;10.13;;;6.90;52.90;;;;;;7362714;19;20015;-68
2022/09/30 05:19:52;;;;;;;14.50;9.55;;;6.90;52.80;;;;;;7363700;19;20002;-68
2022/09/30 05:22:23;;;;;;;14.15;9.85;;;6.90;52.90;;;;;;7358813;19;20015;-70
2022/09/30 05:24:57;;;;;;;20.13;11.23;;;6.90;53.10;;;;;;7383561;19;20019;-69
2022/09/30 05:27:27;;;;;;;15.57;11.37;;;6.90;53.50;;;;;;7361777;19;20006;-69
2022/09/30 05:29:56;;;;;;;21.30;11.73;;;7.00;53.80;;;;;;7368749;19;20025;-68
2022/09/30 05:32:26;;;;;;;17.75;10.95;;;7.00;53.70;;;;;;7365365;19;20025;-69
2022/09/30 05:34:56;;;;;;;17.00;11.00;;;7.00;53.70;;;;;;7369393;19;20450;-68
2022/09/30 05:37:26;;;;;;;16.92;11.13;;;7.10;53.90;;;;;;7368329;19;20007;-69
2022/09/30 05:39:59;;;;;;;14.75;10.52;;;7.10;53.90;;;;;;7390632;19;20018;-69
2022/09/30 05:42:29;;;;;;;18.95;11.05;;;7.20;53.90;;;;;;7367005;19;20006;-70
2022/09/30 05:44:59;;;;;;;19.92;11.75;;;7.40;53.80;;;;;;7368510;19;20026;-70
2022/09/30 05:47:29;;;;;;;14.45;11.00;;;7.60;53.60;;;;;;7367853;19;20102;-69
2022/09/30 05:49:59;;;;;;;13.60;10.15;;;7.70;52.90;;;;;;7370536;19;20018;-69
2022/09/30 05:52:28;;;;;;;13.82;10.50;;;7.80;52.60;;;;;;7365410;19;20079;-67
2022/09/30 05:55:02;;;;;;;14.88;10.73;;;7.90;51.20;;;;;;7390029;19;20014;-69
2022/09/30 05:57:32;;;;;;;16.42;10.77;;;7.90;50.40;;;;;;7366584;19;20014;-70
2022/09/30 06:00:02;;;;;;;16.02;11.13;;;7.90;49.10;;;;;;7368057;19;20014;-69
2022/09/30 06:02:32;;;;;;;18.45;12.05;;;7.90;48.70;;;;;;7365557;19;20354;-68
2022/09/30 06:05:02;;;;;;;15.57;11.82;;;8.00;48.50;;;;;;7367791;19;20479;-68
2022/09/30 06:07:32;;;;;;;17.98;12.35;;;8.10;47.40;;;;;;7366624;19;20501;-68
2022/09/30 06:10:05;;;;;;;18.63;12.27;;;8.10;46.70;;;;;;7390909;19;20729;-70
2022/09/30 06:12:36;;;;;;;19.30;12.70;;;8.10;44.90;;;;;;7366360;19;20402;-69
2022/09/30 06:15:07;;;;;;;21.55;13.10;;;8.10;44.70;;;;;;7363927;19;20014;-68
2022/09/30 06:17:37;;;;;;;20.27;12.68;;;8.20;44.90;;;;;;7367126;19;20006;-69
2022/09/30 06:20:08;;;;;;;15.80;11.57;;;8.30;44.80;;;;;;7367370;19;20014;-69
2022/09/30 06:22:38;;;;;;;16.88;11.52;;;8.50;44.10;;;;;;7367009;19;20024;-69
2022/09/30 06:25:11;;;;;;;17.30;11.60;;;8.50;42.50;;;;;;7367550;19;20015;-69
2022/09/30 06:27:41;;;;;;;17.40;11.35;;;8.60;41.60;;;;;;7388448;19;20011;-70
2022/09/30 06:30:12;;;;;;;17.38;11.13;;;8.50;41.00;;;;;;7365128;19;20011;-68
2022/09/30 06:32:42;;;;;;;17.85;11.80;;;8.50;40.80;;;;;;7366274;19;20010;-68
2022/09/30 06:35:12;;;;;;;19.13;11.82;;;8.50;40.90;;;;;;7367018;19;20006;-69
2022/09/30 06:37:42;;;;;;;18.90;12.85;;;8.60;41.00;;;;;;7365469;19;20010;-69
2022/09/30 06:40:14;;;;;;;18.50;11.73;;;8.70;40.10;;;;;;7363274;19;20030;-70
2022/09/30 06:42:44;;;;;;;15.05;10.88;;;8.70;39.50;;;;;;7387632;19;20039;-69
2022/09/30 06:45:14;;;;;;;16.95;10.45;;;8.90;39.00;;;;;;7366170;19;20371;-69
2022/09/30 06:48:01;;;;;;;21.02;10.38;;;8.80;38.00;;;;;;7367353;19;20425;-69
2022/09/30 06:50:31;;;;;;;14.05;9.52;;;8.80;35.30;;;;;;7366029;19;20611;-69
2022/09/30 06:53:05;;;;;;;19.35;12.43;;;8.90;35.70;;;;;;7365120;19;20510;-69
2022/09/30 06:55:38;;;;;;;18.58;10.30;;;9.10;36.80;;;;;;7367398;19;20086;-70
2022/09/30 06:58:10;;;;;;;13.10;9.85;;;9.10;34.60;;;;;;7368851;19;20023;-71
2022/09/30 07:00:42;;;;;;;10.93;8.30;;;9.10;33.30;;;;;;7385935;19;20010;-70
2022/09/30 07:03:25;;;;;;;17.67;9.48;;;8.80;32.70;;;;;;7363802;19;20470;-70
2022/09/30 07:06:03;;;;;;;12.77;8.32;;;8.90;34.10;;;;;;7366514;19;20493;-69
2022/09/30 07:08:34;;;;;;;14.70;8.98;;;8.90;34.00;;;;;;7367085;19;20014;-69
2022/09/30 07:11:10;;;;;;;13.02;9.20;;;9.00;33.60;;;;;;7365652;19;20411;-69
2022/09/30 07:13:42;;;;;;;17.70;10.32;;;9.00;32.90;;;;;;7363971;19;20014;-69
2022/09/30 07:16:12;;;;;;;16.58;10.95;;;8.90;33.20;;;;;;7366717;19;20056;-69
2022/09/30 07:18:43;;;;;;;13.35;10.23;;;9.00;33.70;;;;;;7389035;19;20010;-69
2022/09/30 07:21:15;;;;;;;15.48;10.25;;;9.10;33.00;;;;;;7363897;19;20002;-70
2022/09/30 07:23:46;;;;;;;29.85;19.05;;;9.00;32.90;;;;;;7362780;19;20011;-69
2022/09/30 07:26:21;;;;;;;24.27;12.85;;;9.60;33.50;;;;;;7365898;19;20010;-70
2022/09/30 07:28:51;;;;;;;;;;;9.90;29.60;;;;;;7365679;19;20115;-70
2022/09/30 07:31:23;;;;;;;17.95;12.52;;;9.90;27.80;;;;;;7361797;19;19938;-69
2022/09/30 07:34:05;;;;;;;22.58;13.18;;;9.70;25.10;;;;;;7383840;19;20384;-70
2022/09/30 07:36:37;;;;;;;23.17;14.90;;;9.50;28.40;;;;;;7362405;19;20098;-69
2022/09/30 07:39:09;;;;;;;18.02;12.80;;;9.50;27.80;;;;;;7365405;19;20010;-70
2022/09/30 07:41:43;;;;;;;17.80;12.27;;;9.50;29.10;;;;;;7360907;19;20003;-68
2022/09/30 07:44:15;;;;;;;;;;;9.50;28.60;;;;;;7362974;19;20382;-69
2022/09/30 07:46:45;;;;;;;15.95;11.35;;;9.50;27.60;;;;;;7363476;19;19911;-69
2022/09/30 07:49:23;;;;;;;18.10;13.23;;;9.30;28.90;;;;;;7365206;19;20018;-69
2022/09/30 07:51:57;;;;;;;17.00;11.75;;;9.30;29.10;;;;;;7382260;19;20026;-70
2022/09/30 07:54:30;;;;;;;18.15;12.20;;;9.20;28.10;;;;;;7361314;19;20151;-70
2022/09/30 07:57:03;;;;;;;17.15;12.95;;;9.10;29.70;;;;;;7361180;19;20158;-70
2022/09/30 07:59:41;;;;;;;17.33;11.75;;;9.20;31.10;;;;;;7363108;19;20034;-70
2022/09/30 08:02:16;;;;;;;19.38;13.23;;;9.20;30.60;;;;;;7362432;19;20033;-70
2022/09/30 08:04:46;;;;;;;17.75;12.43;;;9.20;29.10;;;;;;7361312;19;20494;-69
2022/09/30 08:07:18;;;;;;;17.88;12.23;;;9.10;29.60;;;;;;7360476;19;20026;-69
2022/09/30 08:09:48;;;;;;;22.40;14.50;;;9.20;30.00;;;;;;7385457;19;20023;-70
2022/09/30 08:12:20;;;;;;;21.20;13.30;;;9.20;30.80;;;;;;7362162;19;20038;-69
2022/09/30 08:14:50;;;;;;;18.42;13.50;;;9.30;30.10;;;;;;7358757;19;20348;-69
2022/09/30 08:17:20;;;;;;;17.35;13.68;;;9.20;29.90;;;;;;7361946;19;20010;-70
2022/09/30 08:19:50;;;;;;;15.95;12.38;;;9.30;31.60;;;;;;7362942;19;20014;-69
2022/09/30 08:22:20;;;;;;;20.60;13.07;;;9.50;31.40;;;;;;7360348;19;20025;-70
2022/09/30 08:24:50;;;;;;;23.13;13.30;;;9.50;30.00;;;;;;7383002;19;20035;-70
2022/09/30 08:27:22;;;;;;;16.95;12.27;;;9.60;30.20;;;;;;7359855;19;20022;-69
2022/09/30 08:29:52;;;;;;;19.83;13.88;;;9.70;29.40;;;;;;7362409;19;20021;-70
2022/09/30 08:32:25;;;;;;;22.77;13.73;;;9.70;29.00;;;;;;7362211;19;20030;-68
2022/09/30 08:34:55;;;;;;;19.27;14.13;;;9.70;28.70;;;;;;7362675;19;20035;-69
2022/09/30 08:37:25;;;;;;;19.58;13.52;;;9.70;28.40;;;;;;7359753;19;20098;-70
2022/09/30 08:39:55;;;;;;;20.23;13.98;;;9.70;29.10;;;;;;7386258;19;20022;-69
2022/09/30 08:42:41;;;;;;;17.90;13.43;;;9.70;28.50;;;;;;7358286;19;20018;-70
2022/09/30 08:45:28;;;;;;;17.30;12.90;;;9.70;29.40;;;;;;7361791;19;20017;-69
2022/09/30 08:48:04;;;;;;;18.38;13.88;;;9.80;27.80;;;;;;7361569;19;20378;-71
2022/09/30 08:50:45;;;;;;;23.48;15.02;;;10.00;28.20;;;;;;7360821;19;20023;-70
2022/09/30 08:53:22;;;;;;;22.33;14.68;;;10.10;26.10;;;;;;7359627;19;20021;-68
2022/09/30 08:55:56;;;;;;;18.15;14.20;;;10.20;25.90;;;;;;7362163;19;20036;-70
2022/09/30 08:58:32;;;;;;;18.38;14.68;;;10.30;24.40;;;;;;7362091;19;20007;-69
2022/09/30 09:01:08;;;;;;;22.40;15.07;;;10.60;24.60;;;;;;7382268;19;20363;-70
2022/09/30 09:03:41;;;;;;;17.70;13.40;;;10.90;22.00;;;;;;7361214;19;20078;-70
2022/09/30 09:06:21;;;;;;;20.55;14.70;;;11.30;18.80;;;;;;7369131;19;20007;-69
2022/09/30 09:09:04;;;;;;;20.70;14.95;;;11.30;15.90;;;;;;7370357;19;20015;-69
2022/09/30 09:11:48;;;;;;;20.00;14.43;;;11.20;16.40;;;;;;7369791;19;20006;-69
2022/09/30 09:14:30;;;;;;;22.13;15.98;;;11.30;16.00;;;;;;7367039;19;20013;-69
2022/09/30 09:17:14;;;;;;;22.98;15.05;;;11.30;16.30;;;;;;7369850;19;20007;-69
2022/09/30 09:19:52;;;;;;;21.52;15.25;;;11.50;14.90;;;;;;7370313;19;20034;-69
2022/09/30 09:22:22;;;;;;;20.75;14.43;;;11.70;13.60;;;;;;7366794;19;20384;-69
2022/09/30 09:24:55;;;;;;;18.92;13.95;;;11.70;11.00;;;;;;7390143;19;20018;-69
2022/09/30 09:27:31;;;;;;;18.75;14.02;;;11.90;10.60;;;;;;7366654;19;20027;-70
2022/09/30 09:30:08;;;;;;;19.42;14.48;;;11.80;10.50;;;;;;7369906;19;20022;-68
2022/09/30 09:32:38;;;;;;;18.27;12.57;;;11.60;11.20;;;;;;7368410;19;20011;-69
2022/09/30 09:35:16;;;;;;;18.15;12.77;;;11.50;9.90;;;;;;7369515;19;20010;-69
2022/09/30 09:40:55;;;;;;;14.05;10.18;;;12.00;4.90;;;;;;7368125;19;20431;-70
2022/09/30 09:43:36;;;;;;;10.93;8.57;;;12.20;2.70;;;;;;7365168;19;20450;-70
2022/09/30 09:46:18;;;;;;;19.02;13.43;;;12.40;1.00;;;;;;7382476;19;20471;-68
2022/09/30 09:48:48;;;;;;;14.57;10.40;;;12.60;1.00;;;;;;7391667;19;20011;-68
2022/09/30 09:51:24;;;;;;;11.73;9.57;;;12.50;1.00;;;;;;7364810;19;20082;-69
2022/09/30 09:53:56;;;;;;;15.32;10.13;;;12.30;1.00;;;;;;7365508;19;20034;-70
2022/09/30 09:56:30;;;;;;;15.52;9.85;;;12.70;1.00;;;;;;7365585;19;20481;-69
2022/09/30 09:59:15;;;;;;;11.32;9.05;;;12.70;1.00;;;;;;7366494;19;20486;-71
2022/09/30 10:01:53;;;;;;;10.52;7.75;;;12.80;1.00;;;;;;7365480;19;20007;-69
2022/09/30 10:04:26;;;;;;;9.35;7.30;;;12.90;1.00;;;;;;7366185;19;20510;-69
2022/09/30 10:06:58;;;;;;;8.00;7.07;;;13.00;1.00;;;;;;7387984;19;20498;-70
2022/09/30 10:09:34;;;;;;;12.45;8.35;;;13.20;1.00;;;;;;7368197;19;20091;-71
2022/09/30 10:12:24;;;;;;;10.82;8.07;;;13.20;1.00;;;;;;7365901;19;20014;-70
2022/09/30 10:15:13;;;;;;;11.35;8.40;;;13.40;1.00;;;;;;7364783;19;20018;-69
2022/09/30 10:17:52;;;;;;;9.90;8.25;;;13.30;1.00;;;;;;7366778;19;20010;-69
2022/09/30 10:20:29;;;;;;;10.63;7.90;;;13.60;1.00;;;;;;7363079;19;20010;-69
2022/09/30 10:23:04;;;;;;;13.00;8.38;;;13.80;1.00;;;;;;7364969;19;20011;-70
2022/09/30 10:25:34;;;;;;;10.68;7.30;;;14.00;1.00;;;;;;7367041;19;20038;-70
2022/09/30 10:28:21;;;;;;;10.70;8.05;;;14.00;1.00;;;;;;7384861;19;20018;-69
2022/09/30 10:30:54;;;;;;;9.82;7.43;;;14.10;1.00;;;;;;7362123;19;20015;-70
2022/09/30 10:33:35;;;;;;;9.77;7.50;;;14.10;1.00;;;;;;7364121;19;20010;-70
2022/09/30 10:36:12;;;;;;;7.75;6.80;;;14.30;1.00;;;;;;7365550;19;20034;-69
2022/09/30 10:38:57;;;;;;;7.07;5.85;;;14.30;1.00;;;;;;7365761;19;20371;-69
2022/09/30 10:41:35;;;;;;;9.15;6.55;;;13.80;1.00;;;;;;7361664;19;20030;-70
2022/09/30 10:44:07;;;;;;;8.30;5.90;;;13.80;1.00;;;;;;7361431;19;20007;-69
2022/09/30 10:46:40;;;;;;;9.18;6.05;;;13.80;1.00;;;;;;7366311;19;20501;-69
2022/09/30 10:49:26;;;;;;;6.82;5.72;;;14.20;1.00;;;;;;7364405;19;20011;-70
2022/09/30 10:51:56;;;;;;;7.75;5.50;;;14.20;1.00;;;;;;7383620;19;20018;-69
2022/09/30 10:54:44;;;;;;;7.45;5.88;;;14.50;1.00;;;;;;7362573;19;20014;-69
2022/09/30 10:57:17;;;;;;;6.22;5.40;;;14.70;1.00;;;;;;7360152;19;20006;-69
2022/09/30 10:59:49;;;;;;;7.97;5.60;;;14.70;1.00;;;;;;7365874;19;20025;-69
2022/09/30 11:02:28;;;;;;;9.52;7.68;;;14.60;1.00;;;;;;7360601;19;20014;-69
2022/09/30 11:05:08;;;;;;;11.48;5.80;;;14.50;1.00;;;;;;7360928;19;20546;-69
2022/09/30 11:07:46;;;;;;;7.70;6.00;;;14.70;1.00;;;;;;7362898;19;20014;-69
2022/09/30 11:10:32;;;;;;;7.13;5.20;;;14.90;1.00;;;;;;7362349;19;20010;-70
2022/09/30 11:13:08;;;;;;;7.45;5.00;;;14.80;1.00;;;;;;7383640;19;20018;-69
2022/09/30 11:15:44;;;;;;;7.10;5.75;;;14.90;1.00;;;;;;7364599;19;20696;-69
2022/09/30 11:18:20;;;;;;;8.52;5.03;;;15.10;1.00;;;;;;7363083;19;20046;-71
2022/09/30 11:20:55;;;;;;;8.00;5.15;;;15.10;1.00;;;;;;7358810;19;20007;-70
2022/09/30 11:23:32;;;;;;;6.10;5.22;;;15.20;1.00;;;;;;7359519;19;20015;-71
2022/09/30 11:26:09;;;;;;;6.03;4.78;;;15.30;1.00;;;;;;7358033;19;20025;-69
2022/09/30 11:28:54;;;;;;;9.35;5.57;;;15.40;1.00;;;;;;7364239;19;20018;-70
2022/09/30 11:31:31;;;;;;;5.95;4.78;;;15.10;1.00;;;;;;7358459;19;20006;-69
2022/09/30 11:34:25;;;;;;;6.30;4.90;;;14.80;1.00;;;;;;7380996;19;20082;-70
2022/09/30 11:37:05;;;;;;;8.57;4.03;;;15.00;1.00;;;;;;7360692;19;20022;-70
2022/09/30 11:40:03;;;;;;;6.00;4.45;;;15.30;1.00;;;;;;7364192;19;20006;-70
2022/09/30 11:42:42;;;;;;;5.10;3.67;;;15.30;1.00;;;;;;7361615;19;20038;-68
2022/09/30 11:45:30;;;;;;;5.50;3.90;;;15.30;1.00;;;;;;7363125;19;20014;-70
2022/09/30 11:48:23;;;;;;;4.05;3.15;;;15.40;1.00;;;;;;7362191;19;20451;-70
2022/09/30 11:51:07;;;;;;;6.43;3.10;;;15.60;1.00;;;;;;7358595;19;20047;-69
2022/09/30 11:53:49;;;;;;;5.45;4.03;;;15.50;1.00;;;;;;7357923;19;20014;-70
2022/09/30 11:56:28;;;;;;;17.65;12.05;;;15.60;1.00;;;;;;7362667;19;20011;-70
2022/09/30 11:59:03;;;;;;;11.75;4.97;;;15.70;1.00;;;;;;7363683;19;20007;-69
2022/09/30 12:01:37;;;;;;;5.03;4.03;;;15.40;1.00;;;;;;7361160;19;20010;-68
2022/09/30 12:04:14;;;;;;;6.75;4.47;;;15.00;1.00;;;;;;7360198;19;20098;-71
2022/09/30 12:06:50;;;;;;;7.05;4.25;;;15.40;1.00;;;;;;7385572;19;20014;-69
2022/09/30 12:09:27;;;;;;;6.57;4.38;;;15.50;1.00;;;;;;7365550;19;20131;-70
2022/09/30 12:12:02;;;;;;;6.55;3.90;;;15.60;1.00;;;;;;7360190;19;20045;-70
2022/09/30 12:14:37;;;;;;;8.43;4.38;;;15.70;1.00;;;;;;7361528;19;20011;-70
2022/09/30 12:17:14;;;;;;;4.57;4.18;;;15.70;1.00;;;;;;7362331;19;20046;-70
2022/09/30 12:19:49;;;;;;;6.53;4.03;;;15.70;1.00;;;;;;7364323;19;20011;-71
2022/09/30 12:22:27;;;;;;;5.72;3.20;;;15.70;1.00;;;;;;7360997;19;20042;-70
2022/09/30 12:25:00;;;;;;;4.15;2.90;;;15.70;1.00;;;;;;7380437;19;20022;-69
2022/09/30 12:27:37;;;;;;;3.17;2.40;;;15.90;1.00;;;;;;7353328;19;20019;-68
2022/09/30 12:30:16;;;;;;;3.67;2.60;;;16.10;1.00;;;;;;7361231;19;20017;-68
2022/09/30 12:33:19;;;;;;;6.07;2.40;;;16.30;1.00;;;;;;7362647;19;20031;-69
2022/09/30 12:36:24;;;;;;;4.95;2.78;;;16.10;1.00;;;;;;7363099;19;20014;-68
2022/09/30 12:39:25;;;;;;;3.35;2.35;;;16.00;1.00;;;;;;7364752;19;20484;-69
2022/09/30 12:42:17;;;;;;;4.43;2.10;;;16.30;1.00;;;;;;7360459;19;20010;-70
2022/09/30 12:45:21;;;;;;;3.38;1.52;;;16.40;1.00;;;;;;7358730;19;20033;-69
2022/09/30 12:47:53;;;;;;;3.13;1.90;;;16.40;1.00;;;;;;7359847;19;20023;-69
2022/09/30 12:50:27;;;;;;;3.72;1.98;;;16.60;1.00;;;;;;7358536;19;20033;-69
2022/09/30 12:53:00;;;;;;;2.75;1.80;;;16.60;1.00;;;;;;7360993;19;20014;-69
2022/09/30 12:55:35;;;;;;;3.03;2.10;;;16.80;1.00;;;;;;7359611;19;20038;-70
2022/09/30 12:58:16;;;;;;;4.13;2.20;;;16.90;1.00;;;;;;7376461;19;20014;-69
2022/09/30 13:01:01;;;;;;;2.70;1.85;;;16.70;1.00;;;;;;7353982;19;20006;-69
2022/09/30 13:03:46;;;;;;;3.25;2.00;;;16.70;1.00;;;;;;7354203;19;20007;-68
2022/09/30 13:06:18;;;;;;;2.22;1.77;;;16.60;1.00;;;;;;7361768;19;20014;-68
2022/09/30 13:09:05;;;;;;;3.92;2.00;;;16.30;1.00;;;;;;7361564;19;20010;-69
2022/09/30 13:11:41;;;;;;;3.20;1.48;;;16.00;1.00;;;;;;7358053;19;20039;-69
2022/09/30 13:14:42;;;;;;;2.85;1.25;;;16.00;1.00;;;;;;7359064;19;20014;-70
2022/09/30 13:17:28;;;;;;;6.43;1.58;;;16.30;1.00;;;;;;7360626;19;20015;-70
2022/09/30 13:19:58;;;;;;;1.88;1.02;;;15.90;1.00;;;;;;7363894;19;20006;-69
2022/09/30 13:22:44;;;;;;;2.25;1.10;;;15.80;1.00;;;;;;7359662;19;20021;-69
2022/09/30 13:25:16;;;;;;;2.63;1.63;;;16.10;1.00;;;;;;7358040;19;20103;-69
2022/09/30 13:27:48;;;;;;;10.48;6.85;;;16.20;1.00;;;;;;7380595;19;20530;-67
2022/09/30 13:30:40;;;;;;;6.00;4.07;;;16.30;1.00;;;;;;7359398;19;20018;-68